Saxon, Washington
Current Conditions -  °F | °C
As of 6:53 AM on Tuesday 21 Oct 2014 (Local Time) from KBLI Reporting Station
Light Rain Light Rain  
Wind Chill: 56°   Ceiling: 1900
Heat Index: 56°   Visibility: 10mi
Dew Point: 50°   Wind: 14mph
Humidity: 80%   Direction: 150°SSE
Pressure: 29.8"   Gusts: 22mph
Location:  48.6897°N, 122.171°W
Report Text: KBLI 211353Z AUTO 15012G19KT 10SM -RA BKN019 OVC070 13/10 A2980 RMK AO2 RAB44 SLP099 P0001 T01330100
Loading
Personal Weather Stations






























Interactive Weather Map
Tropical Storm Tracking
New forecast layout! Learn more

10-Day Weather Forecast

Advertisements
Track Severe Weather on mobile